• Join FlightAware (Why Join?)
  • Login
  • US Flag 
03:41PM EST


 

Airport Tracker/Info


-or-


 

Live Flight TrackerFlight Track Log ✈ AFL150 ✈ 31-May-2014 ✈ UUEE / SVO - MUHA / HAV

Flight Track Log - Related Links

Times and Time Zones

All times are in EDT time to prevent confusion due to time zone crossing. See the AFL150 flight status page for this flight to view local times or setup timezone preferences in your user account.

Time Position Orientation Groundspeed Altitude Reporting Facility
EDT Latitude Longitude Course Direction KTS MPH feet Rate Location/Type
06:20AM 56.1937 37.0216 313° West  Level FlightAware Approximate
06:21AM 56.2814 36.8520 313° West  Level FlightAware Approximate
06:21AM 56.1205 37.7342 North 306 352 8,500  Level FlightAware ADS-B (KAPC)
07:20AM 59.9346 26.4524 288° West 452 520 34,000 360 Climbing FlightAware ADS-B (EFHN)
07:22AM 60.0193 26.1061 303° West 473 544 34,000  Level FlightAware ADS-B (EFHN)
07:23AM 60.0585 25.9691 297° West 468 539 34,000  Level FlightAware ADS-B (EFHN)
07:23AM 60.1145 25.7723 302° West 478 550 34,000  Level FlightAware ADS-B (EFHN)
07:24AM 60.1499 25.6578 302° West 487 560 34,000  Level FlightAware ADS-B (EFHN)
07:25AM 60.2041 25.4794 301° West 484 557 34,000  Level FlightAware ADS-B (EFHN)
07:25AM 60.2365 25.3700 301° West 486 559 34,000  Level FlightAware ADS-B (EFHN)
07:26AM 60.2732 25.2462 301° West 486 559 34,000  Level FlightAware ADS-B (EFHN)
07:26AM 60.3216 25.0810 301° West 483 556 34,000  Level FlightAware ADS-B (EFHN)
07:27AM 60.3580 24.9567 301° West 482 555 34,000  Level FlightAware ADS-B (EFHN)
07:28AM 60.4080 24.7856 300° West 482 555 34,000  Level FlightAware ADS-B (EFHN)
07:28AM 60.4426 24.6657 300° West 479 551 34,000  Level FlightAware ADS-B (EFHN)
07:29AM 60.4915 24.4953 300° West 483 556 34,000  Level FlightAware ADS-B (EFHN)
07:29AM 60.5104 24.4295 300° West 479 551 34,000  Level FlightAware ADS-B (EFHN)
07:30AM 60.5741 24.2045 300° West 477 549 34,000  Level FlightAware ADS-B (EFHN)
07:31AM 60.6223 24.0333 300° West 474 545 34,000  Level FlightAware ADS-B (EFHN)
07:32AM 60.6664 23.8751 299° West 475 547 34,000  Level FlightAware ADS-B (EFHN)
07:32AM 60.7053 23.7345 299° West 477 549 34,000  Level FlightAware ADS-B (EFHN)
07:33AM 60.7337 23.6317 300° West 476 548 34,000  Level FlightAware ADS-B (EFHN)
07:33AM 60.7694 23.5018 299° West 476 548 34,000  Level FlightAware ADS-B (EFHN)
07:34AM 60.8158 23.3317 299° West 479 551 34,000  Level FlightAware ADS-B (EFHN)
07:35AM 60.8663 23.1450 299° West 480 552 34,000  Level FlightAware ADS-B (EFHN)
07:36AM 60.9277 22.9337 312° West 482 555 34,000  Level FlightAware ADS-B (EFHN)
07:36AM 60.9812 22.8260 316° Northwest 482 555 34,000  Level FlightAware ADS-B (EFHN)
07:37AM 61.0477 22.6925 316° Northwest 481 554 34,000  Level FlightAware ADS-B (EFHN)
07:37AM 61.1024 22.5826 316° Northwest 482 555 34,000  Level FlightAware ADS-B (EFHN)
07:39AM 61.1470 22.4912 315° West 483 556 34,000  Level FlightAware ADS-B (EFHN)
07:41AM 61.2456 22.0266 294° West  Level Estimated
07:42AM 61.2969 21.7809 294° West  Level Estimated
07:43AM 61.3477 21.5344 293° West  Level Estimated
07:44AM 61.3981 21.2871 293° West  Level Estimated
07:45AM 61.4480 21.0390 293° West  Level Estimated
07:46AM 61.4975 20.7901 293° West  Level Estimated
07:47AM 61.5465 20.5405 292° West  Level Estimated
07:48AM 61.5951 20.2900 292° West  Level Estimated
07:49AM 61.6432 20.0388 292° West  Level Estimated
07:50AM 61.6909 19.7868 292° West  Level Estimated
07:51AM 61.7380 19.5340 292° West  Level Estimated
07:52AM 61.7848 19.2804 291° West  Level Estimated
07:53AM 61.8310 19.0261 291° West  Level Estimated
07:54AM 61.8768 18.7710 291° West  Level Estimated
07:55AM 61.9221 18.5152 291° West  Level Estimated
07:56AM 61.9669 18.2585 290° West  Level Estimated
07:57AM 62.0112 18.0012 290° West  Level Estimated
07:58AM 62.0551 17.7431 290° West  Level Estimated
07:59AM 62.0985 17.4842 290° West  Level Estimated
08:00AM 62.1414 17.2246 290° West  Level Estimated
08:01AM 62.1838 16.9643 289° West  Level Estimated
08:02AM 62.2257 16.7033 289° West  Level Estimated
08:03AM 62.2672 16.4415 289° West  Level Estimated
08:04AM 62.3081 16.1790 289° West  Level Estimated
08:05AM 62.3485 15.9158 288° West  Level Estimated
08:06AM 62.3885 15.6519 288° West  Level Estimated
08:07AM 62.4279 15.3873 288° West  Level Estimated
08:08AM 62.4669 15.1220 288° West  Level Estimated
08:09AM 62.5053 14.8561 287° West  Level Estimated
08:10AM 62.5432 14.5894 287° West  Level Estimated
08:11AM 62.5806 14.3221 287° West  Level Estimated
08:12AM 62.6175 14.0540 287° West  Level Estimated
08:13AM 62.6539 13.7854 287° West  Level Estimated
08:14AM 62.6898 13.5160 286° West  Level Estimated
08:15AM 62.7252 13.2461 286° West  Level Estimated
08:16AM 62.7600 12.9754 286° West  Level Estimated
08:17AM 62.7943 12.7042 286° West  Level Estimated
08:18AM 62.8281 12.4323 285° West  Level Estimated
08:19AM 62.8614 12.1598 285° West  Level Estimated
08:20AM 62.8942 11.8867 285° West  Level Estimated
08:21AM 62.9264 11.6130 285° West  Level Estimated
08:22AM 62.9581 11.3386 284° West  Level Estimated
08:23AM 62.9892 11.0637 284° West  Level Estimated
08:24AM 63.0198 10.7882 284° West  Level Estimated
08:25AM 63.0499 10.5122 284° West  Level Estimated
08:26AM 63.0794 10.2355 283° West  Level Estimated
08:27AM 63.1085 9.9583 283° West  Level Estimated
08:28AM 63.1369 9.6806 283° West  Level Estimated
08:29AM 63.1648 9.4023 283° West  Level Estimated
08:30AM 63.1922 9.1235 282° West  Level Estimated
08:31AM 63.2190 8.8442 282° West  Level Estimated
08:32AM 63.2453 8.5643 282° West  Level Estimated
08:33AM 63.2710 8.2840 282° West  Level Estimated
08:34AM 63.2962 8.0031 281° West  Level Estimated
08:35AM 63.3208 7.7218 281° West  Level Estimated
08:36AM 63.3449 7.4400 281° West  Level Estimated
08:37AM 63.3684 7.1577 281° West  Level Estimated
08:38AM 63.3913 6.8750 280° West  Level Estimated
08:39AM 63.4137 6.5918 280° West  Level Estimated
08:40AM 63.4355 6.3082 280° West  Level Estimated
08:41AM 63.4568 6.0242 280° West  Level Estimated
08:42AM 63.4775 5.7397 279° West  Level Estimated
08:43AM 63.4976 5.4549 279° West  Level Estimated
08:44AM 63.5172 5.1696 279° West  Level Estimated
08:45AM 63.5362 4.8839 279° West  Level Estimated
08:46AM 63.5546 4.5979 278° West  Level Estimated
08:47AM 63.5725 4.3115 278° West  Level Estimated
08:48AM 63.5898 4.0248 278° West  Level Estimated
08:49AM 63.6065 3.7377 278° West  Level Estimated
08:50AM 63.6227 3.4503 277° West  Level Estimated
08:51AM 63.6382 3.1626 277° West  Level Estimated
08:52AM 63.6532 2.8745 277° West  Level Estimated
08:53AM 63.6676 2.5862 277° West  Level Estimated
08:54AM 63.6815 2.2975 276° West  Level Estimated
08:55AM 63.6947 2.0086 276° West  Level Estimated
08:56AM 63.7074 1.7195 276° West  Level Estimated
08:57AM 63.7195 1.4300 276° West  Level Estimated
08:58AM 63.7310 1.1404 275° West  Level Estimated
08:59AM 63.7420 0.8505 275° West  Level Estimated
09:00AM 63.7523 0.5604 275° West  Level Estimated
09:01AM 63.7621 0.2700 274° West  Level Estimated
09:02AM 63.7713 -0.0205 274° West  Level Estimated
09:03AM 63.7799 -0.3112 274° West  Level Estimated
09:04AM 63.7879 -0.6021 274° West  Level Estimated
09:05AM 63.7954 -0.8931 273° West  Level Estimated
09:06AM 63.8022 -1.1843 273° West  Level Estimated
09:07AM 63.8085 -1.4756 273° West  Level Estimated
09:08AM 63.8142 -1.7670 273° West  Level Estimated
09:09AM 63.8193 -2.0586 272° West  Level Estimated
09:10AM 63.8238 -2.3502 272° West  Level Estimated
09:11AM 63.8277 -2.6420 272° West  Level Estimated
09:12AM 63.8310 -2.9338 272° West  Level Estimated
09:13AM 63.8338 -3.2256 271° West  Level Estimated
09:14AM 63.8359 -3.5176 271° West  Level Estimated
09:15AM 63.8375 -3.8095 271° West  Level Estimated
09:16AM 63.8384 -4.1015 271° West  Level Estimated
09:17AM 63.8388 -4.3935 270° West  Level Estimated
09:18AM 63.8386 -4.6855 270° West  Level Estimated
09:19AM 63.8378 -4.9775 270° West  Level Estimated
09:20AM 63.8364 -5.2695 270° West  Level Estimated
09:21AM 63.8345 -5.5614 269° West  Level Estimated
09:22AM 63.8319 -5.8533 269° West  Level Estimated
09:23AM 63.8288 -6.1452 269° West  Level Estimated
09:24AM 63.8250 -6.4369 268° West  Level Estimated
09:25AM 63.8207 -6.7286 268° West  Level Estimated
09:26AM 63.8158 -7.0202 268° West  Level Estimated
09:27AM 63.8103 -7.3116 268° West  Level Estimated
09:28AM 63.8042 -7.6030 267° West  Level Estimated
09:29AM 63.7975 -7.8942 267° West  Level Estimated
09:30AM 63.7903 -8.1853 267° West  Level Estimated
09:31AM 63.7824 -8.4762 267° West  Level Estimated
09:32AM 63.7740 -8.7670 266° West  Level Estimated
09:33AM 63.7650 -9.0576 266° West  Level Estimated
09:34AM 63.7554 -9.3479 266° West  Level Estimated
09:35AM 63.7452 -9.6381 266° West  Level Estimated
09:36AM 63.7344 -9.9281 265° West  Level Estimated
09:37AM 63.7231 -10.2178 265° West  Level Estimated
09:38AM 63.7112 -10.5073 265° West  Level Estimated
09:39AM 63.6986 -10.7966 265° West  Level Estimated
09:40AM 63.6856 -11.0856 264° West  Level Estimated
09:41AM 63.6719 -11.3743 264° West  Level Estimated
09:42AM 63.6576 -11.6627 264° West  Level Estimated
09:43AM 63.6428 -11.9508 264° West  Level Estimated
09:44AM 63.6274 -12.2387 263° West  Level Estimated
09:45AM 63.6115 -12.5262 263° West  Level Estimated
09:46AM 63.5949 -12.8134 263° West  Level Estimated
09:47AM 63.5778 -13.1002 262° West  Level Estimated
09:48AM 63.5601 -13.3867 262° West  Level Estimated
09:49AM 63.5418 -13.6728 262° West  Level Estimated
09:50AM 63.5230 -13.9586 262° West  Level Estimated
09:51AM 63.5036 -14.2440 261° West  Level Estimated
09:52AM 63.4837 -14.5290 261° West  Level Estimated
09:53AM 63.4631 -14.8135 261° West  Level Estimated
09:54AM 63.4420 -15.0977 261° West  Level Estimated
09:55AM 63.4204 -15.3815 260° West  Level Estimated
09:56AM 63.3982 -15.6648 260° West  Level Estimated
09:57AM 63.3754 -15.9476 260° West  Level Estimated
09:58AM 63.3520 -16.2300 260° West  Level Estimated
09:59AM 63.3281 -16.5120 259° West  Level Estimated
10:00AM 63.3037 -16.7935 259° West  Level Estimated
10:01AM 63.2787 -17.0745 259° West  Level Estimated
10:02AM 63.2531 -17.3550 259° West  Level Estimated
10:03AM 63.2270 -17.6350 258° West  Level Estimated
10:04AM 63.2004 -17.9144 258° West  Level Estimated
10:05AM 63.1732 -18.1934 258° West  Level Estimated
10:06AM 63.1454 -18.4719 258° West  Level Estimated
10:07AM 63.1171 -18.7498 257° West  Level Estimated
10:08AM 63.0883 -19.0271 257° West  Level Estimated
10:09AM 63.0589 -19.3039 257° West  Level Estimated
10:10AM 63.0290 -19.5802 257° West  Level Estimated
10:11AM 62.9985 -19.8558 256° West  Level Estimated
10:12AM 62.9675 -20.1309 256° West  Level Estimated
10:13AM 62.9360 -20.4054 256° West  Level Estimated
10:14AM 62.9040 -20.6793 256° West  Level Estimated
10:15AM 62.8714 -20.9526 255° West  Level Estimated
10:16AM 62.8383 -21.2253 255° West  Level Estimated
10:17AM 62.8046 -21.4974 255° West  Level Estimated
10:18AM 62.7705 -21.7688 255° West  Level Estimated
10:19AM 62.7358 -22.0396 254° West  Level Estimated
10:20AM 62.7006 -22.3098 254° West  Level Estimated
10:21AM 62.6649 -22.5793 254° West  Level Estimated
10:22AM 62.6286 -22.8482 254° West  Level Estimated
10:23AM 62.5919 -23.1164 254° West  Level Estimated
10:24AM 62.5546 -23.3840 253° West  Level Estimated
10:25AM 62.5168 -23.6509 253° West  Level Estimated
10:26AM 62.4785 -23.9170 253° West  Level Estimated
10:27AM 62.4398 -24.1825 253° West  Level Estimated
10:28AM 62.4005 -24.4473 252° West  Level Estimated
10:29AM 62.3607 -24.7115 252° West  Level Estimated
10:30AM 62.3204 -24.9749 252° West  Level Estimated
10:31AM 62.2796 -25.2376 252° West  Level Estimated
10:32AM 62.2383 -25.4996 251° West  Level Estimated
10:33AM 62.1965 -25.7608 251° West  Level Estimated
10:34AM 62.1543 -26.0214 251° West  Level Estimated
10:35AM 62.1115 -26.2812 251° West  Level Estimated
10:36AM 62.0683 -26.5402 250° West  Level Estimated
10:37AM 62.0246 -26.7986 250° West  Level Estimated
10:38AM 61.9804 -27.0562 250° West  Level Estimated
10:39AM 61.9357 -27.3130 250° West  Level Estimated
10:40AM 61.8905 -27.5691 250° West  Level Estimated
10:41AM 61.8449 -27.8244 249° West  Level Estimated
10:42AM 61.7988 -28.0790 249° West  Level Estimated
10:43AM 61.7522 -28.3328 249° West  Level Estimated
10:44AM 61.7052 -28.5858 249° West  Level Estimated
10:45AM 61.6577 -28.8380 248° West  Level Estimated
10:46AM 61.6097 -29.0895 248° West  Level Estimated
10:47AM 61.5613 -29.3402 248° West  Level Estimated
10:48AM 61.5124 -29.5901 248° West  Level Estimated
10:49AM 61.4631 -29.8392 248° West  Level Estimated
10:50AM 61.4133 -30.0875 247° West  Level Estimated
10:51AM 61.3630 -30.3351 247° West  Level Estimated
10:52AM 61.3123 -30.5818 247° West  Level Estimated
10:53AM 61.2612 -30.8277 247° West  Level Estimated
10:54AM 61.2096 -31.0729 246° West  Level Estimated
10:55AM 61.1576 -31.3172 246° West  Level Estimated
10:56AM 61.1051 -31.5607 246° West  Level Estimated
10:57AM 61.0522 -31.8034 246° West  Level Estimated
10:58AM 60.9989 -32.0453 246° West  Level Estimated
10:59AM 60.9451 -32.2864 245° Southwest  Level Estimated
11:00AM 60.8909 -32.5266 245° Southwest  Level Estimated
11:01AM 60.8363 -32.7661 245° Southwest  Level Estimated
11:02AM 60.7812 -33.0047 245° Southwest  Level Estimated
11:03AM 60.7258 -33.2425 245° Southwest  Level Estimated
11:04AM 60.6699 -33.4795 244° Southwest  Level Estimated
11:05AM 60.6136 -33.7157 244° Southwest  Level Estimated
11:06AM 60.5569 -33.9510 244° Southwest  Level Estimated
11:07AM 60.4997 -34.1855 244° Southwest  Level Estimated
11:08AM 60.4422 -34.4192 244° Southwest  Level Estimated
11:09AM 60.3843 -34.6520 243° Southwest  Level Estimated
11:10AM 60.3259 -34.8840 243° Southwest  Level Estimated
11:11AM 60.2671 -35.1152 243° Southwest  Level Estimated
11:12AM 60.2080 -35.3456 243° Southwest  Level Estimated
11:13AM 60.1484 -35.5751 243° Southwest  Level Estimated
11:14AM 60.0885 -35.8038 242° Southwest  Level Estimated
11:15AM 60.0281 -36.0317 242° Southwest  Level Estimated
11:16AM 59.9674 -36.2587 242° Southwest  Level Estimated
11:17AM 59.9063 -36.4849 242° Southwest  Level Estimated
11:18AM 59.8448 -36.7102 242° Southwest  Level Estimated
11:19AM 59.7829 -36.9347 241° Southwest  Level Estimated
11:20AM 59.7206 -37.1584 241° Southwest  Level Estimated
11:21AM 59.6579 -37.3813 241° Southwest  Level Estimated
11:22AM 59.5949 -37.6033 241° Southwest  Level Estimated
11:23AM 59.5315 -37.8245 241° Southwest  Level Estimated
11:24AM 59.4677 -38.0448 240° Southwest  Level Estimated
11:25AM 59.4036 -38.2644 240° Southwest  Level Estimated
11:26AM 59.3391 -38.4831 240° Southwest  Level Estimated
11:27AM 59.2742 -38.7009 240° Southwest  Level Estimated
11:28AM 59.2090 -38.9179 240° Southwest  Level Estimated
11:29AM 59.1434 -39.1342 239° Southwest  Level Estimated
11:30AM 59.0774 -39.3495 239° Southwest  Level Estimated
11:31AM 59.0111 -39.5641 239° Southwest  Level Estimated
11:32AM 58.9444 -39.7778 239° Southwest  Level Estimated
11:33AM 58.8774 -39.9907 239° Southwest  Level Estimated
11:34AM 58.8101 -40.2027 239° Southwest  Level Estimated
11:35AM 58.7423 -40.4140 238° Southwest  Level Estimated
11:36AM 58.6743 -40.6244 238° Southwest  Level Estimated
11:37AM 58.6059 -40.8340 238° Southwest  Level Estimated
11:38AM 58.5372 -41.0427 238° Southwest  Level Estimated
11:39AM 58.4681 -41.2507 238° Southwest  Level Estimated
11:40AM 58.3987 -41.4578 237° Southwest  Level Estimated
11:41AM 58.3289 -41.6641 237° Southwest  Level Estimated
11:42AM 58.2589 -41.8697 237° Southwest  Level Estimated
11:43AM 58.1885 -42.0743 237° Southwest  Level Estimated
11:44AM 58.1177 -42.2782 237° Southwest  Level Estimated
11:45AM 58.0467 -42.4813 237° Southwest  Level Estimated
11:46AM 57.9753 -42.6836 236° Southwest  Level Estimated
11:47AM 57.9036 -42.8850 236° Southwest  Level Estimated
11:48AM 57.8316 -43.0857 236° Southwest  Level Estimated
11:49AM 57.7593 -43.2855 236° Southwest  Level Estimated
11:50AM 57.6866 -43.4846 236° Southwest  Level Estimated
11:51AM 57.6137 -43.6828 236° Southwest  Level Estimated
11:52AM 57.5404 -43.8803 235° Southwest  Level Estimated
11:53AM 57.4669 -44.0769 235° Southwest  Level Estimated
11:54AM 57.3930 -44.2728 235° Southwest  Level Estimated
11:55AM 57.3188 -44.4679 235° Southwest  Level Estimated
11:56AM 57.2443 -44.6622 235° Southwest  Level Estimated
11:56AM 63.4667 -45.5833 234° Southwest 460 529 36,000  Level Gander Center
11:57AM 57.1696 -44.8557 235° Southwest  Level Estimated
11:57AM 63.3833 -45.8500 235° Southwest 470 541 36,000  Level Gander Center
11:58AM 57.0945 -45.0484 234° Southwest  Level Estimated
11:58AM 63.3167 -46.0833 238° Southwest 470 541 36,000  Level Gander Center
11:59AM 57.0191 -45.2404 234° Southwest  Level Estimated
11:59AM 63.2500 -46.3000 236° Southwest 470 541 36,000  Level Gander Center
12:00PM 56.9435 -45.4315 234° Southwest  Level Estimated
12:00PM 63.1667 -46.5167 230° Southwest 470 541 36,000  Level Gander Center
12:01PM 56.8675 -45.6219 234° Southwest  Level Estimated
12:01PM 63.1000 -46.7833 241° Southwest 470 541 36,000  Level Gander Center
12:02PM 63.0167 -47.0000 230° Southwest 470 541 36,000  Level Gander Center
12:03PM 62.9333 -47.2333 232° Southwest 470 541 36,000  Level Gander Center
12:04PM 62.8833 -47.4833 246° West 470 541 36,000  Level Gander Center
12:05PM 62.8000 -47.7000 230° Southwest 470 541 36,000  Level Gander Center
12:06PM 62.7167 -47.9167 230° Southwest 470 541 36,000  Level Gander Center
12:07PM 62.6333 -48.1333 230° Southwest 470 541 36,000  Level Gander Center
12:08PM 62.5667 -48.3500 236° Southwest 470 541 36,000  Level Gander Center
12:09PM 62.4833 -48.6000 234° Southwest 470 541 36,000  Level Gander Center
12:10PM 62.4167 -48.8167 236° Southwest 470 541 36,000  Level Gander Center
12:11PM 62.3333 -49.0333 230° Southwest 470 541 36,000  Level Gander Center
12:13PM 62.1667 -49.4833 232° Southwest 470 541 36,000  Level Gander Center
12:14PM 62.1000 -49.6833 235° Southwest 480 552 36,000  Level Gander Center
12:15PM 62.0167 -49.9333 235° Southwest 470 541 36,000  Level Gander Center
12:16PM 61.9500 -50.1667 239° Southwest 470 541 36,000  Level Gander Center
12:17PM 61.8833 -50.4000 239° Southwest 470 541 36,000  Level Gander Center
12:18PM 61.8167 -50.6500 241° Southwest 470 541 36,000  Level Gander Center
12:19PM 61.7500 -50.8833 239° Southwest 470 541 36,000  Level Gander Center
12:20PM 61.6833 -51.1500 242° Southwest 470 541 36,000  Level Gander Center
12:21PM 61.6167 -51.3833 239° Southwest 470 541 36,000  Level Gander Center
12:22PM 61.5500 -51.6000 237° Southwest 470 541 36,000  Level Gander Center
12:23PM 61.4833 -51.8333 239° Southwest 470 541 36,000  Level Gander Center
12:24PM 61.4167 -52.0667 239° Southwest 470 541 36,000  Level Gander Center
12:25PM 61.3500 -52.3000 239° Southwest 480 552 36,000  Level Gander Center
12:26PM 61.2833 -52.5667 243° Southwest 480 552 36,000  Level Gander Center
12:27PM 61.2167 -52.7833 237° Southwest 480 552 36,000  Level Gander Center
12:28PM 61.1333 -53.0167 234° Southwest 480 552 36,000  Level Gander Center
12:29PM 61.0667 -53.2333 238° Southwest 480 552 36,000  Level Gander Center
12:30PM 61.0000 -53.4667 240° Southwest 480 552 36,000  Level Gander Center
12:31PM 60.9333 -53.6833 238° Southwest 480 552 36,000  Level Gander Center
12:32PM 60.8500 -53.9333 236° Southwest 480 552 36,000  Level Gander Center
12:33PM 60.7833 -54.1667 240° Southwest 480 552 36,000  Level Gander Center
12:34PM 60.7167 -54.3833 238° Southwest 480 552 36,000  Level Gander Center
12:35PM 60.6333 -54.6000 232° Southwest 480 552 36,000  Level Gander Center
12:36PM 60.5667 -54.8500 242° Southwest 480 552 36,000  Level Gander Center
12:37PM 60.5000 -55.0667 238° Southwest 480 552 36,000  Level Gander Center
12:38PM 60.4167 -55.2833 232° Southwest 480 552 36,000  Level Gander Center
12:39PM 60.3500 -55.5000 238° Southwest 480 552 36,000  Level Gander Center
12:40PM 60.2667 -55.7167 232° Southwest 480 552 36,000  Level Gander Center
12:41PM 60.2000 -55.9667 242° Southwest 480 552 36,000  Level Gander Center
12:42PM 60.1167 -56.1667 230° Southwest 490 564 36,000  Level Gander Center
12:43PM 60.0500 -56.3833 238° Southwest 480 552 36,000  Level Gander Center
12:44PM 59.9667 -56.6000 233° Southwest 480 552 36,000  Level Gander Center
12:45PM 59.9000 -56.8333 240° Southwest 480 552 36,000  Level Gander Center
12:46PM 59.8167 -57.0500 233° Southwest 480 552 36,000  Level Gander Center
12:47PM 59.7500 -57.2500 237° Southwest 480 552 36,000  Level Gander Center
12:48PM 59.6667 -57.4667 233° Southwest 480 552 36,000  Level Gander Center
12:49PM 59.5833 -57.6667 231° Southwest 480 552 36,000  Level Gander Center
12:50PM 59.5000 -57.8667 231° Southwest 480 552 36,000  Level Gander Center
12:51PM 59.3833 -58.0500 219° Southwest 490 564 36,000  Level Gander Center
12:52PM 59.2667 -58.1833 210° Southwest 500 575 36,000  Level Gander Center
12:53PM 59.1500 -58.3333 213° Southwest 500 575 36,000  Level Gander Center
12:54PM 59.0167 -58.4667 207° Southwest 490 564 36,000  Level Gander Center
12:55PM 58.9167 -58.5667 207° Southwest 500 575 36,000  Level Gander Center
12:56PM 58.8000 -58.7167 214° Southwest 500 575 36,000  Level Gander Center
12:57PM 58.6667 -58.8500 207° Southwest 500 575 36,000  Level Gander Center
12:58PM 58.5500 -58.9833 211° Southwest 490 564 36,000  Level Gander Center
12:59PM 58.4333 -59.0833 204° Southwest 500 575 36,000  Level Gander Center
01:00PM 58.3000 -59.2167 208° Southwest 500 575 36,000  Level Gander Center
01:01PM 58.1833 -59.3500 211° Southwest 500 575 36,000  Level Gander Center
01:02PM 58.0500 -59.4833 208° Southwest 500 575 36,000  Level Gander Center
01:03PM 57.9500 -59.5833 208° Southwest 500 575 36,000  Level Gander Center
01:04PM 57.8333 -59.7167 211° Southwest 510 587 36,000  Level Gander Center
01:05PM 57.7000 -59.8500 208° Southwest 500 575 36,000  Level Gander Center
01:06PM 57.5833 -59.9833 212° Southwest 500 575 36,000  Level Gander Center
01:07PM 57.4667 -60.0667 201° Southwest 510 587 36,000  Level Gander Center
01:08PM 57.3333 -60.2000 208° Southwest 510 587 36,000  Level Gander Center
01:09PM 57.2167 -60.3333 212° Southwest 510 587 36,000  Level Gander Center
01:10PM 57.0833 -60.4500 205° Southwest 500 575 36,000  Level Gander Center
01:11PM 56.9667 -60.5833 212° Southwest 500 575 36,000  Level Gander Center
01:13PM 56.7000 -60.8333 207° Southwest 500 575 36,000  Level Gander Center
01:14PM 56.5833 -60.9167 201° Southwest 500 575 36,000  Level Gander Center
01:15PM 56.4500 -61.0333 206° Southwest 500 575 36,000  Level Gander Center
01:16PM 56.3333 -61.1667 212° Southwest 500 575 36,000  Level Gander Center
01:17PM 56.2000 -61.2833 206° Southwest 500 575 36,000  Level Gander Center
01:18PM 56.0833 -61.3667 202° Southwest 500 575 36,000  Level Gander Center
01:19PM 55.9500 -61.4833 206° Southwest 500 575 36,000  Level Gander Center
01:20PM 55.8333 -61.6167 213° Southwest 500 575 36,000  Level Gander Center
01:21PM 55.7167 -61.7333 209° Southwest 500 575 36,000  Level Gander Center
01:22PM 55.5833 -61.8500 206° Southwest 510 587 36,000  Level Gander Center
01:23PM 55.4667 -61.9333 202° Southwest 510 587 36,000  Level Gander Center
01:24PM 55.3333 -62.0500 206° Southwest 510 587 36,000  Level Gander Center
01:25PM 55.2000 -62.1667 207° Southwest 520 598 36,000  Level Gander Center
01:26PM 55.0667 -62.2667 203° Southwest 520 598 36,000  Level Gander Center
01:27PM 54.9500 -62.3833 210° Southwest 520 598 36,000  Level Gander Center
01:28PM 54.8167 -62.5000 207° Southwest 520 598 36,000  Level Gander Center
01:29PM 54.7000 -62.6167 210° Southwest 520 598 36,000  Level Gander Center
01:30PM 54.5500 -62.7167 201° Southwest 520 598 36,000  Level Gander Center
01:31PM 54.4167 -62.8333 207° Southwest 520 598 36,000  Level Gander Center
01:32PM 54.3000 -62.9500 210° Southwest 520 598 36,000  Level Gander Center
01:33PM 54.1500 -63.0500 201° Southwest 520 598 36,000  Level Gander Center
01:34PM 54.0333 -63.1667 210° Southwest 530 610 36,000  Level Gander Center
01:35PM 53.9000 -63.2667 204° Southwest 520 598 36,000  Level Gander Center
01:36PM 53.7667 -63.3667 204° Southwest 520 598 36,000  Level Gander Center
01:37PM 53.6333 -63.4833 207° Southwest 520 598 36,000  Level Gander Center
01:38PM 53.5000 -63.5833 204° Southwest 530 610 36,000  Level Gander Center
01:39PM 53.3500 -63.6833 202° Southwest 530 610 36,000  Level Gander Center
01:40PM 53.2333 -63.8000 211° Southwest 530 610 36,000  Level Gander Center
01:41PM 53.1000 -63.8667 197° South 530 610 36,000  Level Gander Center
01:42PM 52.9667 -64.0000 211° Southwest 530 610 36,000  Level Gander Center
01:43PM 52.8333 -64.0833 201° Southwest 530 610 36,000  Level Gander Center
01:44PM 52.7000 -64.2000 208° Southwest 530 610 36,000  Level Gander Center
01:45PM 52.5500 -64.2833 199° South 530 610 36,000  Level Gander Center
01:46PM 52.4167 -64.3833 205° Southwest 530 610 36,000  Level Gander Center
01:47PM 52.2833 -64.5000 208° Southwest 540 621 36,000  Level Gander Center
01:48PM 52.1500 -64.5833 201° Southwest 540 621 36,000  Level Gander Center
01:49PM 52.0167 -64.7000 208° Southwest 540 621 36,000  Level Gander Center
01:50PM 51.8667 -64.8000 202° Southwest 540 621 36,000  Level Gander Center
01:51PM 51.7333 -64.9000 205° Southwest 540 621 36,000  Level Gander Center
01:52PM 51.6000 -65.0000 205° Southwest 540 621 36,000  Level Gander Center
01:53PM 51.4667 -65.1000 205° Southwest 540 621 36,000  Level Gander Center
01:54PM 51.3000 -65.2000 201° Southwest 540 621 36,000  Level Moncton Center
01:55PM 51.1833 -65.2833 204° Southwest 540 621 36,000  Level Gander Center
01:56PM 51.0500 -65.3833 205° Southwest 540 621 36,000  Level Gander Center
01:57PM 50.9167 -65.4667 202° Southwest 540 621 36,000  Level Gander Center
01:58PM 50.7833 -65.5667 205° Southwest 540 621 36,000  Level Gander Center
01:59PM 50.6333 -65.6667 203° Southwest 540 621 36,000  Level Gander Center
02:00PM 50.5000 -65.7500 202° Southwest 540 621 36,000  Level Gander Center
02:01PM 50.3667 -65.8500 206° Southwest 540 621 36,000  Level Gander Center
02:02PM 50.2333 -65.9333 202° Southwest 540 621 36,000  Level Gander Center
02:03PM 50.0667 -66.0500 204° Southwest 540 621 36,000  Level Gander Center
02:04PM 49.9500 -66.1500 209° Southwest 540 621 36,000  Level Gander Center
02:05PM 49.8167 -66.2333 202° Southwest 540 621 36,000  Level Gander Center
02:06PM 49.6333 -66.3333 199° South 540 621 36,000  Level Moncton Center
02:07PM 49.4833 -66.4333 203° Southwest 540 621 36,000  Level Moncton Center
02:08PM 49.3500 -66.5333 206° Southwest 540 621 36,000  Level Moncton Center
02:09PM 49.2167 -66.6000 198° South 540 621 36,000  Level Moncton Center
02:10PM 49.1000 -66.6667 201° Southwest 540 621 36,000  Level Gander Center
02:11PM 48.9667 -66.7667 206° Southwest 540 621 36,000  Level Gander Center
02:12PM 48.8167 -66.8667 204° Southwest 540 621 36,000  Level Moncton Center
02:18PM 47.9579 -67.3958 202° Southwest 542 624 36,000  Level FlightAware ADS-B
02:22PM 47.3826 -67.7396 202° Southwest 531 611 36,000  Level FlightAware ADS-B
02:23PM 47.3151 -67.7794 202° Southwest 530 610 36,000  Level FlightAware ADS-B
02:25PM 46.9913 -67.9691 202° Southwest 523 602 36,000  Level FlightAware ADS-B
02:26PM 46.8205 -68.0680 202° Southwest 525 604 36,000  Level FlightAware ADS-B (KBGR)
02:27PM 46.7209 -68.1144 195° South 523 602 36,000  Level FlightAware ADS-B (KBGR)
02:28PM 46.6505 -68.1443 197° South 525 604 36,000  Level FlightAware ADS-B (KBGR)
02:28PM 46.5521 -68.1869 196° South 524 603 36,000  Level FlightAware ADS-B
02:29PM 46.4821 -68.2161 196° South 523 602 36,000  Level FlightAware ADS-B (KBGR)
02:29PM 46.3794 -68.2585 196° South 524 603 36,000  Level FlightAware ADS-B
02:30PM 46.3115 -68.2865 196° South 523 602 36,000  Level FlightAware ADS-B
02:30PM 46.2689 -68.3063 201° Southwest 523 602 36,000  Level FlightAware ADS-B
02:31PM 46.2014 -68.3592 210° Southwest 524 603 36,000  Level FlightAware ADS-B
02:31PM 46.1169 -68.4296 210° Southwest 526 605 36,000  Level FlightAware ADS-B
02:32PM 46.0534 -68.4819 210° Southwest 527 606 36,000  Level FlightAware ADS-B
02:32PM 45.9890 -68.5351 210° Southwest 528 608 36,000  Level FlightAware ADS-B (KBGR)
02:33PM 45.9082 -68.6014 210° Southwest 529 609 36,000  Level FlightAware ADS-B
02:33PM 45.8439 -68.6542 210° Southwest 529 609 36,000  Level FlightAware ADS-B
02:34PM 45.7782 -68.7078 210° Southwest 529 609 36,000  Level FlightAware ADS-B
02:35PM 45.7148 -68.7596 210° Southwest 529 609 36,000  Level FlightAware ADS-B
02:35PM 45.6536 -68.8094 210° Southwest 529 609 36,000  Level FlightAware ADS-B (KBGR)
02:36PM 45.5704 -68.8769 210° Southwest 528 608 36,000  Level FlightAware ADS-B
02:36PM 45.5001 -68.9337 210° Southwest 529 609 36,000  Level FlightAware ADS-B
02:37PM 45.4357 -68.9856 210° Southwest 529 609 36,000  Level FlightAware ADS-B
02:37PM 45.3636 -69.0435 210° Southwest 528 608 36,000  Level FlightAware ADS-B (KBGR)
02:38PM 45.2957 -69.0979 210° Southwest 528 608 36,000  Level FlightAware ADS-B (KBGR)
02:38PM 45.2227 -69.1563 209° Southwest 528 608 36,000  Level FlightAware ADS-B
02:39PM 45.1530 -69.2118 209° Southwest 527 606 36,000  Level FlightAware ADS-B
02:40PM 45.0885 -69.2632 209° Southwest 525 604 36,000  Level FlightAware ADS-B (KBGR)
02:40PM 45.0105 -69.3249 209° Southwest 524 603 36,000  Level FlightAware ADS-B (KBGR)
02:41PM 44.9439 -69.3775 209° Southwest 523 602 36,000  Level FlightAware ADS-B (KBGR)
02:41PM 44.8770 -69.4301 209° Southwest 521 600 36,000  Level FlightAware ADS-B
02:42PM 44.8137 -69.4797 209° Southwest 521 600 36,000  Level FlightAware ADS-B
02:42PM 44.7517 -69.5282 209° Southwest 522 601 36,000  Level FlightAware ADS-B
02:43PM 44.6977 -69.5704 209° Southwest 522 601 36,000  Level FlightAware ADS-B (KBGR)
02:43PM 44.5847 -69.6584 209° Southwest 523 602 36,000  Level FlightAware ADS-B (CYQI)
02:44PM 44.5526 -69.6833 209° Southwest 523 602 36,000  Level FlightAware ADS-B (CYQI)
02:44PM 44.4484 -69.7639 209° Southwest 523 602 36,000  Level FlightAware ADS-B (KBGR)
02:45PM 44.3358 -69.8507 209° Southwest 522 601 36,000  Level FlightAware ADS-B (KBGR)
02:46PM 44.2404 -69.9241 209° Southwest 520 598 36,000  Level FlightAware ADS-B (KBGR)
02:47PM 44.1773 -69.9724 209° Southwest 519 597 36,000  Level FlightAware ADS-B (KBGR)
02:47PM 44.1270 -70.0108 209° Southwest 519 597 36,000  Level FlightAware ADS-B (CYQI)
02:48PM 43.9988 -70.1083 209° Southwest 519 597 36,000  Level FlightAware ADS-B (KBGR)
02:49PM 43.9490 -70.1460 209° Southwest 519 597 36,000  Level FlightAware ADS-B (KBGR)
02:49PM 43.8636 -70.2106 209° Southwest 520 598 36,000  Level FlightAware ADS-B (KBGR)
02:50PM 43.7286 -70.3124 209° Southwest 513 590 36,000  Level FlightAware ADS-B (KASH)
02:51PM 43.6629 -70.3616 209° Southwest 512 589 36,000  Level FlightAware ADS-B (KASH)
02:51PM 43.5671 -70.4332 209° Southwest 512 589 36,000  Level FlightAware ADS-B (KASH)
02:52PM 43.5360 -70.4564 208° Southwest 519 597 36,000  Level FlightAware ADS-B (CYQI)
02:53PM 43.4095 -70.5505 209° Southwest 513 590 36,000  Level FlightAware ADS-B (KASH)
02:53PM 43.3460 -70.5977 209° Southwest 513 590 36,000  Level FlightAware ADS-B (KASH)
02:54PM 43.2818 -70.6451 209° Southwest 513 590 36,000  Level FlightAware ADS-B (KASH)
02:54PM 43.2134 -70.6956 208° Southwest 519 597 36,000  Level FlightAware ADS-B (KBOS)
02:55PM 43.1476 -70.7439 208° Southwest 519 597 36,000  Level FlightAware ADS-B (KBOS)
02:55PM 43.1273 -70.7588 209° Southwest 512 589 36,000  Level FlightAware ADS-B (KASH)
02:55PM 43.0632 -70.8059 209° Southwest 512 589 36,000  Level FlightAware ADS-B (KASH)
02:56PM 42.9863 -70.8622 208° Southwest 519 597 36,000  Level FlightAware ADS-B (KBOS)
02:56PM 42.9647 -70.8780 209° Southwest 512 589 36,000  Level FlightAware ADS-B (KASH)
02:57PM 42.9024 -70.9233 209° Southwest 512 589 36,000  Level FlightAware ADS-B (KASH)
02:57PM 42.8527 -70.9595 208° Southwest 519 597 36,000  Level FlightAware ADS-B (KBOS)
02:58PM 42.7765 -71.0148 209° Southwest 511 588 36,000  Level FlightAware ADS-B (KASH)
02:58PM 42.7125 -71.0611 209° Southwest 511 588 36,000  Level FlightAware ADS-B (KASH)
02:59PM 42.6516 -71.1051 209° Southwest 512 589 36,000  Level FlightAware ADS-B (KASH)
02:59PM 42.6234 -71.1255 209° Southwest 512 589 36,000  Level FlightAware ADS-B (KASH)
02:59PM 42.5621 -71.1787 218° Southwest 511 588 36,000  Level FlightAware ADS-B (KASH)
03:00PM 42.5018 -71.2414 218° Southwest 518 596 36,000  Level FlightAware ADS-B (KBOS)
03:00PM 42.4464 -71.2987 217° Southwest 518 596 36,000  Level FlightAware ADS-B (KBOS)
03:01PM 42.3890 -71.3578 217° Southwest 519 597 36,000  Level FlightAware ADS-B (KBOS)
03:01PM 42.3316 -71.4169 217° Southwest 520 598 36,000  Level FlightAware ADS-B (KBOS)
03:02PM 42.2710 -71.4791 217° Southwest 522 601 36,000  Level FlightAware ADS-B (KASH)
03:02PM 42.2129 -71.5387 217° Southwest 522 601 36,000  Level FlightAware ADS-B (KASH)
03:03PM 42.1563 -71.5965 217° Southwest 522 601 36,000  Level FlightAware ADS-B (KASH)
03:03PM 42.0971 -71.6569 217° Southwest 523 602 36,000  Level FlightAware ADS-B (KASH)
03:04PM 42.0404 -71.7146 217° Southwest 523 602 36,000  Level FlightAware ADS-B (KASH)
03:05PM 41.9964 -71.7593 217° Southwest 523 602 36,000  Level FlightAware ADS-B (KOWD)
03:05PM 41.9481 -71.8082 217° Southwest 525 604 36,000  Level FlightAware ADS-B (KOWD)
03:06PM 41.8372 -71.9203 217° Southwest 527 606 36,000  Level FlightAware ADS-B (SBBR / BSB)
03:06PM 41.7689 -71.9889 217° Southwest 528 608 36,000  Level FlightAware ADS-B (KSNC)
03:07PM 41.7102 -72.0478 217° Southwest 529 609 36,000  Level FlightAware ADS-B (KSNC)
03:07PM 41.6491 -72.1088 217° Southwest 531 611 36,000  Level FlightAware ADS-B (SBBR / BSB)
03:08PM 41.5904 -72.1675 217° Southwest 531 611 36,000  Level FlightAware ADS-B (SBBR / BSB)
03:08PM 41.5218 -72.2358 217° Southwest 533 613 36,000  Level FlightAware ADS-B (KSNC)
03:09PM 41.4584 -72.2987 217° Southwest 532 612 36,000  Level FlightAware ADS-B (KSNC)
03:10PM 41.3775 -72.3787 217° Southwest 531 611 36,000  Level FlightAware ADS-B (KSNC)
03:10PM 41.2959 -72.4543 213° Southwest 533 613 36,000  Level FlightAware ADS-B (KSNC)
03:11PM 41.2348 -72.5063 213° Southwest 533 613 36,000  Level FlightAware ADS-B (KSNC)
03:11PM 41.1709 -72.5613 213° Southwest 533 613 36,000  Level FlightAware ADS-B (KSNC)
03:12PM 41.1083 -72.6156 213° Southwest 534 615 36,000  Level FlightAware ADS-B (KSNC)
03:12PM 41.0489 -72.6672 213° Southwest 534 615 36,000  Level FlightAware ADS-B (KSNC)
03:13PM 40.9637 -72.7411 213° Southwest 533 613 36,000  Level FlightAware ADS-B (KSNC)
03:14PM 40.8907 -72.8043 213° Southwest 532 612 36,000  Level FlightAware ADS-B (SBBR / BSB)
03:14PM 40.8188 -72.8663 213° Southwest 532 612 36,000  Level FlightAware ADS-B (KSNC)
03:15PM 40.7414 -72.9329 213° Southwest 535 616 36,000  Level FlightAware ADS-B (KPHL)
03:15PM 40.6776 -72.9877 213° Southwest 538 619 36,000  Level FlightAware ADS-B (KPHL)
03:16PM 40.6096 -73.0459 213° Southwest 538 619 36,000  Level FlightAware ADS-B (KSNC)
03:16PM 40.5423 -73.1033 213° Southwest 539 620 36,000  Level FlightAware ADS-B (KSNC)
03:17PM 40.4795 -73.1568 213° Southwest 538 619 36,000  Level FlightAware ADS-B (KSNC)
03:17PM 40.4150 -73.2116 213° Southwest 536 617 36,000  Level FlightAware ADS-B (KSNC)
03:18PM 40.3519 -73.2651 213° Southwest 538 619 36,000  Level FlightAware ADS-B (KSNC)
03:18PM 40.2803 -73.3258 213° Southwest 537 618 36,000  Level FlightAware ADS-B (KWWD)
03:19PM 40.2074 -73.3872 213° Southwest 536 617 36,000  Level FlightAware ADS-B (KSNC)
03:20PM 40.1445 -73.4403 213° Southwest 535 616 36,000  Level FlightAware ADS-B (KSNC)
03:20PM 40.0808 -73.4937 213° Southwest 532 612 36,000  Level FlightAware ADS-B (KSNC)
03:21PM 40.0209 -73.5440 213° Southwest 530 610 36,000  Level FlightAware ADS-B (KSNC)
03:21PM 39.9502 -73.6030 213° Southwest 529 609 36,000  Level FlightAware ADS-B (KPHL)
03:22PM 39.8844 -73.6580 213° Southwest 522 601 36,000  Level FlightAware ADS-B (KWWD)
03:22PM 39.8118 -73.7183 213° Southwest 530 610 36,000  Level FlightAware ADS-B (KSNC)
03:23PM 39.7491 -73.7703 213° Southwest 533 613 36,000  Level FlightAware ADS-B (KSNC)
03:23PM 39.6915 -73.8180 213° Southwest 534 615 36,000  Level FlightAware ADS-B (KSNC)
03:24PM 39.6252 -73.8727 213° Southwest 535 616 36,000  Level FlightAware ADS-B (KPHL)
03:24PM 39.5466 -73.9376 213° Southwest 533 613 36,000  Level FlightAware ADS-B (KPHL)
03:25PM 39.4715 -73.9995 213° Southwest 530 610 36,000  Level FlightAware ADS-B (KWWD)
03:25PM 39.4072 -74.0522 213° Southwest 522 601 36,000  Level FlightAware ADS-B (KWWD)
03:26PM 39.4195 -74.0422 212° Southwest 528 608 36,000  Level FlightAware ADS-B (KPHL)
03:26PM 39.3022 -74.1381 213° Southwest 519 597 36,000  Level FlightAware ADS-B (KWWD)
03:27PM 39.2404 -74.1883 213° Southwest 519 597 36,000  Level FlightAware ADS-B (KWWD)
03:27PM 39.1615 -74.2526 213° Southwest 517 595 36,000  Level FlightAware ADS-B (KWWD)
03:28PM 39.1151 -74.2902 212° Southwest 523 602 36,000  Level FlightAware ADS-B (KPHL)
03:28PM 39.0393 -74.3516 213° Southwest 513 590 36,000  Level FlightAware ADS-B (KWWD)
03:29PM 38.9798 -74.3997 212° Southwest 518 596 36,000  Level FlightAware ADS-B (KWWD)
03:30PM 38.9039 -74.4608 212° Southwest 516 594 36,000  Level FlightAware ADS-B (KPHL)
03:30PM 38.8350 -74.5162 212° Southwest 515 593 36,000  Level FlightAware ADS-B (KWWD)
03:31PM 38.7745 -74.5649 212° Southwest 514 592 36,000  Level FlightAware ADS-B (KWWD)
03:31PM 38.7156 -74.6120 212° Southwest 513 590 36,000  Level FlightAware ADS-B (KWWD)
03:32PM 38.6517 -74.6631 212° Southwest 514 592 36,000  Level FlightAware ADS-B (KWWD)
03:32PM 38.5719 -74.7268 212° Southwest 513 590 36,000  Level FlightAware ADS-B (KWWD)
03:33PM 38.4934 -74.7893 212° Southwest 512 589 36,000  Level FlightAware ADS-B (KWWD)
03:34PM 38.4280 -74.8411 212° Southwest 510 587 36,000  Level FlightAware ADS-B (KPHL)
03:34PM 38.3684 -74.8884 212° Southwest 509 586 36,000  Level FlightAware ADS-B (KPHL)
03:35PM 38.3074 -74.9366 212° Southwest 509 586 36,000  Level FlightAware ADS-B (KPHL)
03:35PM 38.2109 -75.0126 212° Southwest 510 587 36,000  Level FlightAware ADS-B (KWWD)
03:36PM 38.1513 -75.0595 212° Southwest 511 588 36,000  Level FlightAware ADS-B (KWWD)
03:36PM 38.0904 -75.1073 212° Southwest 512 589 36,000  Level FlightAware ADS-B (KWWD)
03:37PM 38.0070 -75.1725 212° Southwest 513 590 36,000  Level FlightAware ADS-B (KWWD)
03:38PM 37.9459 -75.2202 212° Southwest 513 590 36,000  Level FlightAware ADS-B (KWWD)
03:38PM 37.8861 -75.2669 212° Southwest 512 589 36,000  Level FlightAware ADS-B (KWWD)
03:39PM 37.8032 -75.3313 212° Southwest 510 587 36,000  Level FlightAware ADS-B (KWWD)
03:39PM 37.7433 -75.3778 212° Southwest 510 587 36,000  Level FlightAware ADS-B (KWWD)
03:40PM 37.6821 -75.4252 212° Southwest 508 585 36,000  Level FlightAware ADS-B (KWWD)
03:40PM 37.6053 -75.4846 212° Southwest 507 583 36,000  Level FlightAware ADS-B (KWWD)
03:41PM 37.5234 -75.5476 212° Southwest 507 583 36,000  Level FlightAware ADS-B (KWWD)
03:42PM 37.4623 -75.5946 212° Southwest 508 585 36,000  Level FlightAware ADS-B (KWWD)
03:42PM 37.4012 -75.6415 212° Southwest 508 585 36,000  Level FlightAware ADS-B (KWWD)
03:43PM 37.3393 -75.6889 211° Southwest 506 582 36,000  Level FlightAware ADS-B (KWWD)
03:43PM 37.2654 -75.7454 212° Southwest 494 568 36,000  Level FlightAware ADS-B (KWWD)
03:44PM 37.1978 -75.7968 212° Southwest 489 563 36,000  Level FlightAware ADS-B
03:44PM 37.1769 -75.8129 212° Southwest 486 559 36,000  Level FlightAware ADS-B
03:44PM 37.1203 -75.8558 212° Southwest 485 558 36,000  Level FlightAware ADS-B
03:45PM 37.0385 -75.9181 212° Southwest 484 557 36,000  Level FlightAware ADS-B
03:46PM 36.9735 -75.9673 212° Southwest 478 550 36,000  Level FlightAware ADS-B (KWWD)
03:46PM 36.9018 -76.0215 212° Southwest 482 555 36,000  Level FlightAware ADS-B
03:47PM 36.8390 -76.0688 212° Southwest 472 543 36,000  Level FlightAware ADS-B (KWWD)
03:47PM 36.7752 -76.1168 212° Southwest 477 549 36,000  Level FlightAware ADS-B
03:48PM 36.6950 -76.1770 212° Southwest 471 542 36,000  Level FlightAware ADS-B (KWWD)
03:49PM 36.6326 -76.2237 212° Southwest 477 549 36,000  Level FlightAware ADS-B
03:49PM 36.5414 -76.2919 212° Southwest 474 545 36,000  Level FlightAware ADS-B (KWWD)
03:50PM 36.4805 -76.3373 212° Southwest 480 552 36,000  Level FlightAware ADS-B
03:51PM 36.3929 -76.4025 211° Southwest 481 554 36,000  Level FlightAware ADS-B
03:51PM 36.3258 -76.4523 211° Southwest 480 552 36,000  Level FlightAware ADS-B
03:52PM 36.2664 -76.4963 211° Southwest 481 554 36,000  Level FlightAware ADS-B
03:53PM 36.1772 -76.5622 211° Southwest 488 562 36,000  Level Washington Center
03:54PM 36.0617 -76.6456 210° Southwest 488 562 36,000  Level Washington Center
03:55PM 35.9483 -76.7311 211° Southwest 488 562 36,000  Level Washington Center
03:56PM 35.8347 -76.8142 211° Southwest 488 562 36,000  Level Washington Center
03:57PM 35.7169 -76.8967 210° Southwest 488 562 36,000  Level Washington Center
03:58PM 35.6222 -76.9719 213° Southwest 483 556 36,000  Level Washington Center
03:59PM 35.5086 -77.0517 210° Southwest 477 549 36,000  Level Washington Center
04:00PM 35.3950 -77.1336 210° Southwest 477 549 36,000  Level Washington Center
04:01PM 35.2792 -77.2153 210° Southwest 482 555 36,000  Level Washington Center
04:02PM 35.1633 -77.2969 210° Southwest 482 555 36,000  Level Washington Center
04:03PM 35.0517 -77.3756 210° Southwest 477 549 36,000  Level Washington Center
04:04PM 34.9397 -77.4542 210° Southwest 477 549 36,000  Level Washington Center
04:05PM 34.8150 -77.5500 212° Southwest 477 549 36,000  Level Washington Center
04:06PM 34.7053 -77.6283 210° Southwest 482 555 36,000  Level Washington Center
04:07PM 34.5956 -77.7089 211° Southwest 477 549 36,000  Level Washington Center
04:08PM 34.4814 -77.7864 209° Southwest 477 549 36,000  Level Washington Center
04:09PM 34.3717 -77.8589 209° Southwest 472 543 36,000  Level Washington Center
04:10PM 34.2561 -77.8986 196° South 466 536 36,000  Level Washington Center
04:12PM 33.9456 -77.9911 194° South 460 529 36,000  Level Jacksonville Center
04:13PM 33.8239 -78.0231 192° South 460 529 36,000  Level Jacksonville Center
04:14PM 33.7000 -78.0572 193° South 465 535 36,000  Level Jacksonville Center
04:15PM 33.5722 -78.1017 196° South 470 541 36,000  Level Jacksonville Center
04:16PM 33.4464 -78.1358 193° South 470 541 36,000  Level Jacksonville Center
04:17PM 33.3183 -78.1725 193° South 470 541 36,000  Level Jacksonville Center
04:18PM 33.1944 -78.2064 193° South 470 541 36,000  Level Jacksonville Center
04:19PM 33.0661 -78.2403 192° South 470 541 36,000  Level Jacksonville Center
04:20PM 32.9383 -78.2792 194° South 470 541 36,000  Level Jacksonville Center
04:21PM 32.8164 -78.3150 194° South 470 541 36,000  Level Jacksonville Center
04:22PM 32.6903 -78.3461 192° South 470 541 36,000  Level Jacksonville Center
04:23PM 32.5664 -78.3867 195° South 470 541 36,000  Level Jacksonville Center
04:24PM 32.4381 -78.4153 191° South 470 541 36,000  Level Jacksonville Center
04:25PM 32.3144 -78.4583 196° South 465 535 36,000  Level Jacksonville Center
04:26PM 32.1822 -78.4967 194° South 465 535 36,000  Level Jacksonville Center
04:27PM 32.0603 -78.5319 194° South 460 529 36,000  Level Jacksonville Center
04:28PM 31.9383 -78.5694 195° South 455 524 36,000  Level Jacksonville Center
04:29PM 31.8164 -78.6044 194° South 460 529 36,000  Level Jacksonville Center
04:30PM 31.6994 -78.6686 205° Southwest 463 533 36,000  Level Jacksonville Center
04:31PM 31.5867 -78.7297 205° Southwest 455 524 36,000  Level Jacksonville Center
04:32PM 31.4675 -78.7911 204° Southwest 460 529 36,000  Level Jacksonville Center
04:33PM 31.3506 -78.8519 204° Southwest 460 529 36,000  Level Jacksonville Center
04:34PM 31.2219 -78.8769 189° South 454 522 36,000  Level Jacksonville Center
04:35PM 31.1000 -78.9139 195° South 462 532 36,000  Level Jacksonville Center
04:36PM 30.9761 -78.9578 197° South 467 537 36,000  Level Jacksonville Center
04:37PM 30.8533 -78.9725 186° South 467 537 36,000  Level Jacksonville Center
04:38PM 30.7228 -78.9997 190° South 467 537 36,000  Level Jacksonville Center
04:39PM 30.5753 -79.0350 192° South 466 536 36,000  Level Miami Center
04:40PM 30.4492 -79.0656 192° South 464 534 36,000  Level Miami Center
04:41PM 30.3239 -79.0958 192° South 463 533 36,000  Level Miami Center
04:42PM 30.1978 -79.1267 192° South 462 532 36,000  Level Miami Center
04:43PM 30.0706 -79.1581 192° South 463 533 36,000  Level Miami Center
04:45PM 29.9408 -79.1878 191° South 466 536 36,000  Level Miami Center
04:46PM 29.8136 -79.2200 192° South 469 540 36,000  Level Miami Center
04:47PM 29.6900 -79.2669 198° South 469 540 36,000  Level Miami Center
04:48PM 29.5442 -79.3247 199° South 467 537 36,000  Level Miami Center
04:49PM 29.4214 -79.3711 198° South 466 536 36,000  Level Miami Center
04:50PM 29.2992 -79.4178 198° South 466 536 36,000  Level Miami Center
04:56PM 28.5710 -79.6938 198° South 460 529 36,000  Level FlightAware ADS-B (KMCO)
04:56PM 28.4901 -79.7242 198° South 454 522 36,000  Level FlightAware ADS-B (KMCO)
04:57PM 28.4111 -79.7540 198° South 453 521 36,000  Level FlightAware ADS-B (KMCO)
04:58PM 28.3282 -79.7851 198° South 455 524 36,000  Level FlightAware ADS-B (KMCO)
04:58PM 28.2497 -79.8145 198° South 454 522 36,000  Level FlightAware ADS-B (KMCO)
04:59PM 28.1308 -79.8589 198° South 457 526 36,000  Level FlightAware ADS-B (KMCO)
05:00PM 28.0535 -79.8877 198° South 457 526 36,000  Level FlightAware ADS-B (KMCO)
05:01PM 27.9432 -79.9288 198° South 459 528 36,000  Level FlightAware ADS-B (KMCO)
05:01PM 27.8630 -79.9586 198° South 460 529 36,000  Level FlightAware ADS-B (RJTF)
05:04PM 27.5244 -80.0839 198° South 466 536 36,000  Level FlightAware ADS-B (KMCO)
05:05PM 27.4293 -80.1190 198° South 473 544 36,000  Level FlightAware ADS-B (RJTF)
05:05PM 27.3765 -80.1384 198° South 473 544 36,000  Level FlightAware ADS-B (RJTF)
05:06PM 27.2718 -80.1770 198° South 472 543 36,000  Level FlightAware ADS-B (RJTF)
05:07PM 27.2100 -80.1997 198° South 469 540 36,000  Level FlightAware ADS-B (RJTF)
05:08PM 27.1070 -80.2373 198° South 465 535 36,000  Level FlightAware ADS-B (KMCO)
05:08PM 27.0348 -80.2637 198° South 466 536 36,000  Level FlightAware ADS-B (RJTF)
05:09PM 26.9661 -80.2888 198° South 464 534 36,000  Level FlightAware ADS-B (RJTF)
05:09PM 26.9009 -80.3126 198° South 463 533 36,000  Level FlightAware ADS-B (RJTF)
05:10PM 26.8172 -80.3431 198° South 466 536 36,000  Level FlightAware ADS-B (KMCO)
05:10PM 26.7566 -80.3652 198° South 467 537 36,000  Level FlightAware ADS-B (RJTF)
05:11PM 26.6852 -80.3912 198° South 466 536 36,000  Level FlightAware ADS-B (RJTF)
05:11PM 26.6236 -80.4135 198° South 464 534 36,000  Level FlightAware ADS-B (RJTF)
05:12PM 26.5365 -80.4451 198° South 463 533 36,000  Level FlightAware ADS-B (RJTF)
05:13PM 26.4747 -80.4675 198° South 464 534 36,000  Level FlightAware ADS-B (RJTF)
05:13PM 26.4202 -80.4872 198° South 464 534 36,000  Level FlightAware ADS-B (RJTF)
05:14PM 26.3823 -80.5008 198° South 463 533 36,000  Level FlightAware ADS-B (RJTF)
05:15PM 26.2465 -80.5429 187° South 467 537 36,000  Level FlightAware ADS-B (KMCO)
05:15PM 26.1723 -80.5517 186° South 463 533 36,000  Level FlightAware ADS-B (RJTF)
05:16PM 26.1083 -80.5588 186° South 459 528 36,000  Level FlightAware ADS-B (KMCO)
05:16PM 26.1291 -80.5565 186° South 460 529 36,000  Level FlightAware ADS-B (RJTF)
05:18PM 25.8814 -80.5783 186° South 460 529 36,000  Level Miami Center
05:19PM 25.7578 -80.5925 186° South 456 525 36,000 -180 Level Miami Center
05:20PM 25.6439 -80.6836 216° Southwest 449 517 35,700 -660 Descending Miami Center
05:21PM 25.5719 -80.8042 237° Southwest 453 521 34,700 -1,020 Descending Miami Center
05:22PM 25.5264 -80.9306 248° West 448 516 33,600 -1,020 Descending Miami Center
05:23PM 25.4972 -81.0656 257° West 451 519 32,700 -960 Descending Miami Center
05:24PM 25.4436 -81.1894 244° Southwest 450 518 31,700 -840 Descending Miami Center
05:25PM 25.3531 -81.2800 222° Southwest 445 512 31,000 -360 Descending Miami Center
05:26PM 25.2403 -81.3822 219° Southwest 441 507 31,000  Level Miami Center
05:27PM 25.1478 -81.4708 221° Southwest 441 507 31,000  Level Miami Center
05:28PM 25.0544 -81.5575 220° Southwest 441 507 31,000  Level Miami Center
05:29PM 24.9608 -81.6439 220° Southwest 441 507 31,000 -300 Level Miami Center
05:30PM 24.8683 -81.7289 220° Southwest 441 507 30,500 -840 Descending Miami Center
05:31PM 24.7597 -81.8294 220° Southwest 434 499 29,300 -1,080 Descending Miami Center
05:32PM 24.6661 -81.9153 220° Southwest 429 494 28,300 -1,020 Descending Miami Center
05:33PM 24.5778 -81.9953 219° Southwest 417 480 27,300 -1,020 Descending Miami Center
05:34PM 24.4908 -82.0739 219° Southwest 410 472 26,300 -1,020 Descending Miami Center
05:35PM 24.4058 -82.1511 220° Southwest 401 461 25,300 -840 Descending Miami Center
05:36PM 24.3228 -82.2261 219° Southwest 393 452 24,600 -660 Descending Miami Center
05:37PM 24.2406 -82.3019 220° Southwest 387 445 24,000 -360 Descending Miami Center
05:38PM 24.1414 -82.3925 220° Southwest 387 445 23,900 -840 Descending Miami Center
05:39PM 24.0667 -82.4603 220° Southwest 383 441 22,300 -1,620 Descending Miami Center
05:41PM 23.9202 -82.5052 173° South  Level FlightAware Approximate
05:48PM 23.0138 -82.4000 180° South  Level FlightAware Approximate
05:49PM 22.9891 -82.4091 180° South  Level Estimated
05:50PM 22.9891 -82.4091 180° South  Level Estimated
05:51PM 22.9891 -82.4091 180° South  Level Estimated
05:52PM 22.9891 -82.4091 180° South  Level Estimated
05:53PM 22.9891 -82.4091 180° South  Level Estimated
05:54PM 22.9891 -82.4091 180° South  Level Estimated
05:55PM 22.9891 -82.4091 180° South  Level Estimated
05:56PM 22.9891 -82.4091 180° South  Level Estimated
05:57PM 22.9891 -82.4091 180° South  Level Estimated
05:58PM 22.9891 -82.4091 180° South  Level Estimated
05:59PM 22.9891 -82.4091 180° South  Level Estimated
06:00PM 22.9891 -82.4091 180° South  Level Estimated
06:01PM 22.9891 -82.4091 180° South  Level Estimated
06:02PM 22.9891 -82.4091 180° South  Level Estimated
06:03PM 22.9891 -82.4091 180° South  Level Estimated
06:04PM 22.9891 -82.4091 180° South  Level Estimated
06:05PM 22.9891 -82.4091 180° South  Level Estimated
06:06PM 22.9891 -82.4091 180° South  Level Estimated
06:07PM 22.9891 -82.4091 180° South  Level Estimated
06:08PM 22.9891 -82.4091 180° South  Level Estimated
06:09PM 22.9891 -82.4091 180° South  Level Estimated
06:10PM 22.9891 -82.4091 180° South  Level Estimated
06:11PM 22.9891 -82.4091 180° South  Level Estimated